sensor_id;sensor_type;location;lat;lon;timestamp;temperature;humidity
75451;DHT22;64029;48.244;9.188;2023-09-07T00:01:18;13.80;72.60
75451;DHT22;64029;48.244;9.188;2023-09-07T00:03:45;13.80;72.90
75451;DHT22;64029;48.244;9.188;2023-09-07T00:06:11;13.70;74.00
75451;DHT22;64029;48.244;9.188;2023-09-07T00:08:38;13.70;73.40
75451;DHT22;64029;48.244;9.188;2023-09-07T00:11:05;13.60;73.10
75451;DHT22;64029;48.244;9.188;2023-09-07T00:13:34;13.60;73.10
75451;DHT22;64029;48.244;9.188;2023-09-07T00:16:01;13.60;73.10
75451;DHT22;64029;48.244;9.188;2023-09-07T00:18:28;13.50;73.10
75451;DHT22;64029;48.244;9.188;2023-09-07T00:20:55;13.40;73.00
75451;DHT22;64029;48.244;9.188;2023-09-07T00:23:22;13.40;73.10
75451;DHT22;64029;48.244;9.188;2023-09-07T00:25:49;13.40;73.30
75451;DHT22;64029;48.244;9.188;2023-09-07T00:28:16;13.30;73.00
75451;DHT22;64029;48.244;9.188;2023-09-07T00:30:44;13.30;73.10
75451;DHT22;64029;48.244;9.188;2023-09-07T00:33:11;13.20;73.10
75451;DHT22;64029;48.244;9.188;2023-09-07T00:35:37;13.20;73.20
75451;DHT22;64029;48.244;9.188;2023-09-07T00:38:04;13.20;73.30
75451;DHT22;64029;48.244;9.188;2023-09-07T00:40:31;13.20;73.10
75451;DHT22;64029;48.244;9.188;2023-09-07T00:42:58;13.10;73.20
75451;DHT22;64029;48.244;9.188;2023-09-07T00:45:27;13.10;73.20
75451;DHT22;64029;48.244;9.188;2023-09-07T00:47:55;13.10;72.90
75451;DHT22;64029;48.244;9.188;2023-09-07T00:50:22;13.10;72.60
75451;DHT22;64029;48.244;9.188;2023-09-07T00:52:49;13.10;72.70
75451;DHT22;64029;48.244;9.188;2023-09-07T00:55:16;13.00;73.00
75451;DHT22;64029;48.244;9.188;2023-09-07T00:57:43;13.00;72.40
75451;DHT22;64029;48.244;9.188;2023-09-07T01:00:11;13.00;73.00
75451;DHT22;64029;48.244;9.188;2023-09-07T01:02:38;12.90;73.10
75451;DHT22;64029;48.244;9.188;2023-09-07T01:05:07;13.00;73.10
75451;DHT22;64029;48.244;9.188;2023-09-07T01:07:40;12.90;72.60
75451;DHT22;64029;48.244;9.188;2023-09-07T01:10:09;12.90;73.00
75451;DHT22;64029;48.244;9.188;2023-09-07T01:12:36;12.90;72.50
75451;DHT22;64029;48.244;9.188;2023-09-07T01:15:03;12.90;72.20
75451;DHT22;64029;48.244;9.188;2023-09-07T01:17:30;12.80;72.60
75451;DHT22;64029;48.244;9.188;2023-09-07T01:20:00;12.80;72.30
75451;DHT22;64029;48.244;9.188;2023-09-07T01:22:33;12.80;72.30
75451;DHT22;64029;48.244;9.188;2023-09-07T01:25:00;12.80;72.40
75451;DHT22;64029;48.244;9.188;2023-09-07T01:27:28;12.80;72.70
75451;DHT22;64029;48.244;9.188;2023-09-07T01:29:55;12.70;73.10
75451;DHT22;64029;48.244;9.188;2023-09-07T01:32:22;12.70;73.40
75451;DHT22;64029;48.244;9.188;2023-09-07T01:34:49;12.70;73.20
75451;DHT22;64029;48.244;9.188;2023-09-07T01:37:16;12.60;73.40
75451;DHT22;64029;48.244;9.188;2023-09-07T01:39:44;12.60;73.40
75451;DHT22;64029;48.244;9.188;2023-09-07T01:42:11;12.60;73.40
75451;DHT22;64029;48.244;9.188;2023-09-07T01:44:37;12.50;73.40
75451;DHT22;64029;48.244;9.188;2023-09-07T01:47:04;12.40;73.40
75451;DHT22;64029;48.244;9.188;2023-09-07T01:49:31;12.50;73.40
75451;DHT22;64029;48.244;9.188;2023-09-07T01:51:58;12.40;73.50
75451;DHT22;64029;48.244;9.188;2023-09-07T01:54:25;12.40;73.70
75451;DHT22;64029;48.244;9.188;2023-09-07T01:56:53;12.40;73.60
75451;DHT22;64029;48.244;9.188;2023-09-07T01:59:20;12.40;73.70
75451;DHT22;64029;48.244;9.188;2023-09-07T02:01:47;12.40;73.60
75451;DHT22;64029;48.244;9.188;2023-09-07T02:04:14;12.30;73.30
75451;DHT22;64029;48.244;9.188;2023-09-07T02:06:40;12.30;74.10
75451;DHT22;64029;48.244;9.188;2023-09-07T02:09:07;12.30;73.30
75451;DHT22;64029;48.244;9.188;2023-09-07T02:11:34;12.30;73.20
75451;DHT22;64029;48.244;9.188;2023-09-07T02:14:02;12.20;73.60
75451;DHT22;64029;48.244;9.188;2023-09-07T02:16:29;12.20;73.90
75451;DHT22;64029;48.244;9.188;2023-09-07T02:19:01;12.20;73.80
75451;DHT22;64029;48.244;9.188;2023-09-07T02:21:29;12.10;73.60
75451;DHT22;64029;48.244;9.188;2023-09-07T02:23:56;12.10;74.00
75451;DHT22;64029;48.244;9.188;2023-09-07T02:26:23;12.10;73.90
75451;DHT22;64029;48.244;9.188;2023-09-07T02:28:50;12.10;73.80
75451;DHT22;64029;48.244;9.188;2023-09-07T02:31:18;12.00;73.70
75451;DHT22;64029;48.244;9.188;2023-09-07T02:33:45;12.00;73.70
75451;DHT22;64029;48.244;9.188;2023-09-07T02:36:11;11.90;73.70
75451;DHT22;64029;48.244;9.188;2023-09-07T02:38:38;11.90;73.70
75451;DHT22;64029;48.244;9.188;2023-09-07T02:41:05;11.90;73.20
75451;DHT22;64029;48.244;9.188;2023-09-07T02:43:32;11.90;73.60
75451;DHT22;64029;48.244;9.188;2023-09-07T02:45:59;11.90;73.50
75451;DHT22;64029;48.244;9.188;2023-09-07T02:48:27;11.90;73.40
75451;DHT22;64029;48.244;9.188;2023-09-07T02:50:53;11.90;72.90
75451;DHT22;64029;48.244;9.188;2023-09-07T02:53:23;11.80;73.30
75451;DHT22;64029;48.244;9.188;2023-09-07T02:55:50;11.90;73.10
75451;DHT22;64029;48.244;9.188;2023-09-07T02:58:17;11.80;73.30
75451;DHT22;64029;48.244;9.188;2023-09-07T03:00:45;11.80;73.20
75451;DHT22;64029;48.244;9.188;2023-09-07T03:03:13;11.80;73.40
75451;DHT22;64029;48.244;9.188;2023-09-07T03:05:42;11.80;73.00
75451;DHT22;64029;48.244;9.188;2023-09-07T03:08:09;11.80;73.20
75451;DHT22;64029;48.244;9.188;2023-09-07T03:10:37;11.70;73.40
75451;DHT22;64029;48.244;9.188;2023-09-07T03:13:05;11.70;73.10
75451;DHT22;64029;48.244;9.188;2023-09-07T03:15:32;11.60;74.70
75451;DHT22;64029;48.244;9.188;2023-09-07T03:17:59;11.60;73.80
75451;DHT22;64029;48.244;9.188;2023-09-07T03:20:26;11.60;73.90
75451;DHT22;64029;48.244;9.188;2023-09-07T03:22:54;11.60;73.50
75451;DHT22;64029;48.244;9.188;2023-09-07T03:25:21;11.60;73.30
75451;DHT22;64029;48.244;9.188;2023-09-07T03:27:48;11.60;73.50
75451;DHT22;64029;48.244;9.188;2023-09-07T03:30:15;11.50;73.50
75451;DHT22;64029;48.244;9.188;2023-09-07T03:32:42;11.50;73.50
75451;DHT22;64029;48.244;9.188;2023-09-07T03:35:08;11.50;73.70
75451;DHT22;64029;48.244;9.188;2023-09-07T03:37:36;11.50;74.10
75451;DHT22;64029;48.244;9.188;2023-09-07T03:40:06;11.50;73.60
75451;DHT22;64029;48.244;9.188;2023-09-07T03:42:35;11.50;73.50
75451;DHT22;64029;48.244;9.188;2023-09-07T03:45:02;11.50;73.50
75451;DHT22;64029;48.244;9.188;2023-09-07T03:47:29;11.40;73.60
75451;DHT22;64029;48.244;9.188;2023-09-07T03:49:56;11.40;73.40
75451;DHT22;64029;48.244;9.188;2023-09-07T03:52:24;11.40;73.40
75451;DHT22;64029;48.244;9.188;2023-09-07T03:54:53;11.40;73.90
75451;DHT22;64029;48.244;9.188;2023-09-07T03:57:22;11.40;74.70
75451;DHT22;64029;48.244;9.188;2023-09-07T03:59:49;11.40;73.70
75451;DHT22;64029;48.244;9.188;2023-09-07T04:02:16;11.40;73.60
75451;DHT22;64029;48.244;9.188;2023-09-07T04:04:43;11.30;73.50
75451;DHT22;64029;48.244;9.188;2023-09-07T04:07:14;11.30;73.70
75451;DHT22;64029;48.244;9.188;2023-09-07T04:09:40;11.30;73.40
75451;DHT22;64029;48.244;9.188;2023-09-07T04:12:07;11.30;73.40
75451;DHT22;64029;48.244;9.188;2023-09-07T04:14:36;11.30;73.40
75451;DHT22;64029;48.244;9.188;2023-09-07T04:17:03;11.30;73.50
75451;DHT22;64029;48.244;9.188;2023-09-07T04:19:30;11.30;73.60
75451;DHT22;64029;48.244;9.188;2023-09-07T04:21:57;11.30;73.70
75451;DHT22;64029;48.244;9.188;2023-09-07T04:24:25;11.30;74.20
75451;DHT22;64029;48.244;9.188;2023-09-07T04:26:52;11.20;74.10
75451;DHT22;64029;48.244;9.188;2023-09-07T04:29:19;11.20;74.20
75451;DHT22;64029;48.244;9.188;2023-09-07T04:31:47;11.20;73.80
75451;DHT22;64029;48.244;9.188;2023-09-07T04:34:14;11.20;74.10
75451;DHT22;64029;48.244;9.188;2023-09-07T04:36:41;11.10;74.00
75451;DHT22;64029;48.244;9.188;2023-09-07T04:39:08;11.10;75.00
75451;DHT22;64029;48.244;9.188;2023-09-07T04:41:34;11.10;74.60
75451;DHT22;64029;48.244;9.188;2023-09-07T04:44:01;11.00;76.00
75451;DHT22;64029;48.244;9.188;2023-09-07T04:46:28;11.00;74.60
75451;DHT22;64029;48.244;9.188;2023-09-07T04:48:56;11.00;74.90
75451;DHT22;64029;48.244;9.188;2023-09-07T04:51:23;11.00;74.30
75451;DHT22;64029;48.244;9.188;2023-09-07T04:53:51;11.00;73.90
75451;DHT22;64029;48.244;9.188;2023-09-07T04:56:18;11.00;73.90
75451;DHT22;64029;48.244;9.188;2023-09-07T04:58:45;11.00;74.00
75451;DHT22;64029;48.244;9.188;2023-09-07T05:01:12;10.90;73.60
75451;DHT22;64029;48.244;9.188;2023-09-07T05:03:39;10.90;74.10
75451;DHT22;64029;48.244;9.188;2023-09-07T05:06:08;10.90;74.80
75451;DHT22;64029;48.244;9.188;2023-09-07T05:08:34;10.90;74.20
75451;DHT22;64029;48.244;9.188;2023-09-07T05:11:02;10.90;74.40
75451;DHT22;64029;48.244;9.188;2023-09-07T05:13:30;10.90;74.10
75451;DHT22;64029;48.244;9.188;2023-09-07T05:15:59;10.90;73.80
75451;DHT22;64029;48.244;9.188;2023-09-07T05:18:26;10.90;73.70
75451;DHT22;64029;48.244;9.188;2023-09-07T05:20:53;10.90;74.30
75451;DHT22;64029;48.244;9.188;2023-09-07T05:23:22;10.90;74.20
75451;DHT22;64029;48.244;9.188;2023-09-07T05:25:52;10.90;74.40
75451;DHT22;64029;48.244;9.188;2023-09-07T05:28:20;10.90;75.60
75451;DHT22;64029;48.244;9.188;2023-09-07T05:30:47;11.00;75.30
75451;DHT22;64029;48.244;9.188;2023-09-07T05:33:16;10.90;74.80
75451;DHT22;64029;48.244;9.188;2023-09-07T05:35:44;10.90;74.80
75451;DHT22;64029;48.244;9.188;2023-09-07T05:38:11;10.90;75.10
75451;DHT22;64029;48.244;9.188;2023-09-07T05:40:41;10.90;75.00
75451;DHT22;64029;48.244;9.188;2023-09-07T05:43:08;10.90;75.60
75451;DHT22;64029;48.244;9.188;2023-09-07T05:45:36;10.90;75.50
75451;DHT22;64029;48.244;9.188;2023-09-07T05:48:04;10.90;75.80
75451;DHT22;64029;48.244;9.188;2023-09-07T05:50:33;10.90;76.20
75451;DHT22;64029;48.244;9.188;2023-09-07T05:53:00;10.90;76.20
75451;DHT22;64029;48.244;9.188;2023-09-07T05:55:26;10.90;75.90
75451;DHT22;64029;48.244;9.188;2023-09-07T05:57:55;10.90;76.20
75451;DHT22;64029;48.244;9.188;2023-09-07T06:00:22;10.90;76.30
75451;DHT22;64029;48.244;9.188;2023-09-07T06:02:50;11.00;77.00
75451;DHT22;64029;48.244;9.188;2023-09-07T06:05:17;11.00;76.90
75451;DHT22;64029;48.244;9.188;2023-09-07T06:07:44;11.00;76.50
75451;DHT22;64029;48.244;9.188;2023-09-07T06:10:11;11.00;76.70
75451;DHT22;64029;48.244;9.188;2023-09-07T06:12:38;11.10;76.90
75451;DHT22;64029;48.244;9.188;2023-09-07T06:15:07;11.10;76.90
75451;DHT22;64029;48.244;9.188;2023-09-07T06:17:34;11.10;76.80
75451;DHT22;64029;48.244;9.188;2023-09-07T06:20:01;11.30;77.10
75451;DHT22;64029;48.244;9.188;2023-09-07T06:22:29;11.40;76.80
75451;DHT22;64029;48.244;9.188;2023-09-07T06:24:56;11.50;76.90
75451;DHT22;64029;48.244;9.188;2023-09-07T06:27:23;11.60;76.90
75451;DHT22;64029;48.244;9.188;2023-09-07T06:29:49;11.70;76.80
75451;DHT22;64029;48.244;9.188;2023-09-07T06:32:18;11.90;77.40
75451;DHT22;64029;48.244;9.188;2023-09-07T06:34:45;11.90;77.50
75451;DHT22;64029;48.244;9.188;2023-09-07T06:37:13;12.10;77.30
75451;DHT22;64029;48.244;9.188;2023-09-07T06:39:39;12.20;77.70
75451;DHT22;64029;48.244;9.188;2023-09-07T06:42:08;12.40;77.60
75451;DHT22;64029;48.244;9.188;2023-09-07T06:44:35;12.50;77.80
75451;DHT22;64029;48.244;9.188;2023-09-07T06:47:02;12.70;79.20
75451;DHT22;64029;48.244;9.188;2023-09-07T06:49:30;13.00;79.00
75451;DHT22;64029;48.244;9.188;2023-09-07T06:51:57;13.20;79.80
75451;DHT22;64029;48.244;9.188;2023-09-07T06:54:24;13.40;80.20
75451;DHT22;64029;48.244;9.188;2023-09-07T06:56:51;13.60;80.50
75451;DHT22;64029;48.244;9.188;2023-09-07T06:59:18;13.80;80.50
75451;DHT22;64029;48.244;9.188;2023-09-07T07:01:45;14.00;80.90
75451;DHT22;64029;48.244;9.188;2023-09-07T07:04:11;14.20;81.50
75451;DHT22;64029;48.244;9.188;2023-09-07T07:06:40;14.30;80.80
75451;DHT22;64029;48.244;9.188;2023-09-07T07:09:06;14.50;81.20
75451;DHT22;64029;48.244;9.188;2023-09-07T07:11:34;14.60;81.30
75451;DHT22;64029;48.244;9.188;2023-09-07T07:14:01;14.80;81.10
75451;DHT22;64029;48.244;9.188;2023-09-07T07:16:28;14.90;80.70
75451;DHT22;64029;48.244;9.188;2023-09-07T07:18:55;15.00;80.90
75451;DHT22;64029;48.244;9.188;2023-09-07T07:21:21;15.20;81.10
75451;DHT22;64029;48.244;9.188;2023-09-07T07:23:51;15.30;81.70
75451;DHT22;64029;48.244;9.188;2023-09-07T07:26:18;15.40;82.20
75451;DHT22;64029;48.244;9.188;2023-09-07T07:28:45;15.50;82.80
75451;DHT22;64029;48.244;9.188;2023-09-07T07:31:12;15.60;82.90
75451;DHT22;64029;48.244;9.188;2023-09-07T07:33:39;15.70;82.70
75451;DHT22;64029;48.244;9.188;2023-09-07T07:36:05;15.80;82.90
75451;DHT22;64029;48.244;9.188;2023-09-07T07:38:32;15.90;83.10
75451;DHT22;64029;48.244;9.188;2023-09-07T07:41:01;16.10;83.30
75451;DHT22;64029;48.244;9.188;2023-09-07T07:43:28;16.20;83.00
75451;DHT22;64029;48.244;9.188;2023-09-07T07:45:56;16.20;82.50
75451;DHT22;64029;48.244;9.188;2023-09-07T07:48:23;16.30;82.60
75451;DHT22;64029;48.244;9.188;2023-09-07T07:50:50;16.40;82.60
75451;DHT22;64029;48.244;9.188;2023-09-07T07:53:17;16.50;83.00
75451;DHT22;64029;48.244;9.188;2023-09-07T07:55:44;16.60;83.50
75451;DHT22;64029;48.244;9.188;2023-09-07T07:58:12;16.70;82.40
75451;DHT22;64029;48.244;9.188;2023-09-07T08:00:39;16.80;82.30
75451;DHT22;64029;48.244;9.188;2023-09-07T08:03:07;16.80;82.10
75451;DHT22;64029;48.244;9.188;2023-09-07T08:05:34;16.90;82.20
75451;DHT22;64029;48.244;9.188;2023-09-07T08:08:01;16.90;81.90
75451;DHT22;64029;48.244;9.188;2023-09-07T08:10:29;17.00;81.60
75451;DHT22;64029;48.244;9.188;2023-09-07T08:12:56;17.10;81.50
75451;DHT22;64029;48.244;9.188;2023-09-07T08:15:25;17.10;81.40
75451;DHT22;64029;48.244;9.188;2023-09-07T08:17:52;17.20;81.60
75451;DHT22;64029;48.244;9.188;2023-09-07T08:20:19;17.20;81.50
75451;DHT22;64029;48.244;9.188;2023-09-07T08:22:46;17.30;81.40
75451;DHT22;64029;48.244;9.188;2023-09-07T08:25:13;17.40;82.30
75451;DHT22;64029;48.244;9.188;2023-09-07T08:27:40;17.50;82.20
75451;DHT22;64029;48.244;9.188;2023-09-07T08:30:11;17.60;82.10
75451;DHT22;64029;48.244;9.188;2023-09-07T08:32:39;17.70;82.10
75451;DHT22;64029;48.244;9.188;2023-09-07T08:35:08;17.70;81.90
75451;DHT22;64029;48.244;9.188;2023-09-07T08:37:35;17.80;81.80
75451;DHT22;64029;48.244;9.188;2023-09-07T08:40:02;17.70;82.00
75451;DHT22;64029;48.244;9.188;2023-09-07T08:42:31;17.80;82.00
75451;DHT22;64029;48.244;9.188;2023-09-07T08:45:00;17.90;82.30
75451;DHT22;64029;48.244;9.188;2023-09-07T08:47:33;17.90;82.40
75451;DHT22;64029;48.244;9.188;2023-09-07T08:50:02;18.00;82.40
75451;DHT22;64029;48.244;9.188;2023-09-07T08:52:31;18.10;83.10
75451;DHT22;64029;48.244;9.188;2023-09-07T08:54:58;18.20;82.20
75451;DHT22;64029;48.244;9.188;2023-09-07T08:57:30;18.20;82.40
75451;DHT22;64029;48.244;9.188;2023-09-07T08:59:57;18.40;83.30
75451;DHT22;64029;48.244;9.188;2023-09-07T09:02:26;18.50;82.90
75451;DHT22;64029;48.244;9.188;2023-09-07T09:04:53;18.50;82.50
75451;DHT22;64029;48.244;9.188;2023-09-07T09:07:22;18.60;82.90
75451;DHT22;64029;48.244;9.188;2023-09-07T09:09:49;18.60;82.60
75451;DHT22;64029;48.244;9.188;2023-09-07T09:12:16;18.60;82.60
75451;DHT22;64029;48.244;9.188;2023-09-07T09:14:43;18.60;82.70
75451;DHT22;64029;48.244;9.188;2023-09-07T09:17:13;18.70;82.40
75451;DHT22;64029;48.244;9.188;2023-09-07T09:19:41;18.80;82.30
75451;DHT22;64029;48.244;9.188;2023-09-07T09:22:08;18.80;82.60
75451;DHT22;64029;48.244;9.188;2023-09-07T09:24:36;18.90;82.50
75451;DHT22;64029;48.244;9.188;2023-09-07T09:27:03;18.90;82.20
75451;DHT22;64029;48.244;9.188;2023-09-07T09:29:32;19.00;82.30
75451;DHT22;64029;48.244;9.188;2023-09-07T09:32:00;19.00;82.20
75451;DHT22;64029;48.244;9.188;2023-09-07T09:34:32;19.10;82.40
75451;DHT22;64029;48.244;9.188;2023-09-07T09:36:59;19.10;82.60
75451;DHT22;64029;48.244;9.188;2023-09-07T09:39:26;19.20;82.60
75451;DHT22;64029;48.244;9.188;2023-09-07T09:41:55;19.20;82.30
75451;DHT22;64029;48.244;9.188;2023-09-07T09:44:23;19.30;82.50
75451;DHT22;64029;48.244;9.188;2023-09-07T09:46:52;19.40;82.50
75451;DHT22;64029;48.244;9.188;2023-09-07T09:49:20;19.40;82.40
75451;DHT22;64029;48.244;9.188;2023-09-07T09:51:49;19.50;82.40
75451;DHT22;64029;48.244;9.188;2023-09-07T09:54:16;19.50;82.20
75451;DHT22;64029;48.244;9.188;2023-09-07T09:56:43;19.50;81.80
75451;DHT22;64029;48.244;9.188;2023-09-07T09:59:13;19.60;81.80
75451;DHT22;64029;48.244;9.188;2023-09-07T10:01:43;19.70;81.80
75451;DHT22;64029;48.244;9.188;2023-09-07T10:04:11;19.80;81.80
75451;DHT22;64029;48.244;9.188;2023-09-07T10:06:39;19.80;81.60
75451;DHT22;64029;48.244;9.188;2023-09-07T10:09:06;19.90;81.60
75451;DHT22;64029;48.244;9.188;2023-09-07T10:11:37;19.90;81.60
75451;DHT22;64029;48.244;9.188;2023-09-07T10:14:06;20.00;81.60
75451;DHT22;64029;48.244;9.188;2023-09-07T10:16:44;20.20;81.60
75451;DHT22;64029;48.244;9.188;2023-09-07T10:19:15;20.20;81.20
75451;DHT22;64029;48.244;9.188;2023-09-07T10:21:42;20.20;81.20
75451;DHT22;64029;48.244;9.188;2023-09-07T10:24:09;20.30;81.30
75451;DHT22;64029;48.244;9.188;2023-09-07T10:26:37;20.40;81.50
75451;DHT22;64029;48.244;9.188;2023-09-07T10:29:04;20.40;80.80
75451;DHT22;64029;48.244;9.188;2023-09-07T10:31:31;20.40;80.40
75451;DHT22;64029;48.244;9.188;2023-09-07T10:34:09;20.50;80.20
75451;DHT22;64029;48.244;9.188;2023-09-07T10:36:38;20.60;80.40
75451;DHT22;64029;48.244;9.188;2023-09-07T10:39:04;20.70;80.00
75451;DHT22;64029;48.244;9.188;2023-09-07T10:41:40;20.70;79.70
75451;DHT22;64029;48.244;9.188;2023-09-07T10:44:08;20.80;79.30
75451;DHT22;64029;48.244;9.188;2023-09-07T10:46:37;20.90;79.60
75451;DHT22;64029;48.244;9.188;2023-09-07T10:49:07;20.90;79.70
75451;DHT22;64029;48.244;9.188;2023-09-07T10:51:41;21.00;79.40
75451;DHT22;64029;48.244;9.188;2023-09-07T10:54:16;21.00;78.80
75451;DHT22;64029;48.244;9.188;2023-09-07T10:56:44;21.10;78.80
75451;DHT22;64029;48.244;9.188;2023-09-07T10:59:13;21.10;79.30
75451;DHT22;64029;48.244;9.188;2023-09-07T11:01:40;21.20;78.50
75451;DHT22;64029;48.244;9.188;2023-09-07T11:04:07;21.30;77.60
75451;DHT22;64029;48.244;9.188;2023-09-07T11:06:37;21.40;77.40
75451;DHT22;64029;48.244;9.188;2023-09-07T11:09:05;21.40;77.70
75451;DHT22;64029;48.244;9.188;2023-09-07T11:11:34;21.50;78.20
75451;DHT22;64029;48.244;9.188;2023-09-07T11:14:02;21.50;77.80
75451;DHT22;64029;48.244;9.188;2023-09-07T11:16:30;21.50;77.60
75451;DHT22;64029;48.244;9.188;2023-09-07T11:18:57;21.60;77.80
75451;DHT22;64029;48.244;9.188;2023-09-07T11:21:25;21.70;77.50
75451;DHT22;64029;48.244;9.188;2023-09-07T11:23:53;21.60;77.40
75451;DHT22;64029;48.244;9.188;2023-09-07T11:26:21;21.70;77.30
75451;DHT22;64029;48.244;9.188;2023-09-07T11:28:48;21.70;77.40
75451;DHT22;64029;48.244;9.188;2023-09-07T11:31:18;21.80;76.50
75451;DHT22;64029;48.244;9.188;2023-09-07T11:33:47;21.90;76.90
75451;DHT22;64029;48.244;9.188;2023-09-07T11:36:14;21.90;76.60
75451;DHT22;64029;48.244;9.188;2023-09-07T11:38:43;22.00;75.60
75451;DHT22;64029;48.244;9.188;2023-09-07T11:41:11;22.00;76.10
75451;DHT22;64029;48.244;9.188;2023-09-07T11:43:39;22.00;76.10
75451;DHT22;64029;48.244;9.188;2023-09-07T11:46:07;22.00;76.60
75451;DHT22;64029;48.244;9.188;2023-09-07T11:48:34;22.10;76.90
75451;DHT22;64029;48.244;9.188;2023-09-07T11:51:01;22.20;76.80
75451;DHT22;64029;48.244;9.188;2023-09-07T11:53:28;22.10;76.90
75451;DHT22;64029;48.244;9.188;2023-09-07T11:55:56;22.20;76.40
75451;DHT22;64029;48.244;9.188;2023-09-07T11:58:23;22.30;76.50
75451;DHT22;64029;48.244;9.188;2023-09-07T12:00:53;22.40;75.30
75451;DHT22;64029;48.244;9.188;2023-09-07T12:03:20;22.40;75.20
75451;DHT22;64029;48.244;9.188;2023-09-07T12:05:47;22.50;76.50
75451;DHT22;64029;48.244;9.188;2023-09-07T12:08:14;22.50;75.80
75451;DHT22;64029;48.244;9.188;2023-09-07T12:10:42;22.60;75.30
75451;DHT22;64029;48.244;9.188;2023-09-07T12:13:08;22.60;75.30
75451;DHT22;64029;48.244;9.188;2023-09-07T12:15:35;22.60;75.20
75451;DHT22;64029;48.244;9.188;2023-09-07T12:18:04;22.70;75.30
75451;DHT22;64029;48.244;9.188;2023-09-07T12:20:31;22.70;75.00
75451;DHT22;64029;48.244;9.188;2023-09-07T12:22:57;22.70;74.80
75451;DHT22;64029;48.244;9.188;2023-09-07T12:25:23;22.80;74.70
75451;DHT22;64029;48.244;9.188;2023-09-07T12:27:51;22.80;74.70
75451;DHT22;64029;48.244;9.188;2023-09-07T12:30:18;22.90;74.80
75451;DHT22;64029;48.244;9.188;2023-09-07T12:32:45;22.90;74.60
75451;DHT22;64029;48.244;9.188;2023-09-07T12:35:14;23.00;74.00
75451;DHT22;64029;48.244;9.188;2023-09-07T12:37:40;23.00;72.70
75451;DHT22;64029;48.244;9.188;2023-09-07T12:40:09;23.00;74.00
75451;DHT22;64029;48.244;9.188;2023-09-07T12:42:38;23.10;73.80
75451;DHT22;64029;48.244;9.188;2023-09-07T12:45:07;23.30;72.80
75451;DHT22;64029;48.244;9.188;2023-09-07T12:47:34;23.30;73.50
75451;DHT22;64029;48.244;9.188;2023-09-07T12:50:01;23.30;73.70
75451;DHT22;64029;48.244;9.188;2023-09-07T12:52:29;23.40;73.60
75451;DHT22;64029;48.244;9.188;2023-09-07T12:54:56;23.40;73.50
75451;DHT22;64029;48.244;9.188;2023-09-07T12:57:23;23.40;73.30
75451;DHT22;64029;48.244;9.188;2023-09-07T12:59:50;23.40;72.70
75451;DHT22;64029;48.244;9.188;2023-09-07T13:02:16;23.50;72.90
75451;DHT22;64029;48.244;9.188;2023-09-07T13:04:43;23.50;73.00
75451;DHT22;64029;48.244;9.188;2023-09-07T13:07:10;23.60;73.00
75451;DHT22;64029;48.244;9.188;2023-09-07T13:09:38;23.60;72.90
75451;DHT22;64029;48.244;9.188;2023-09-07T13:12:06;23.60;72.50
75451;DHT22;64029;48.244;9.188;2023-09-07T13:14:33;23.60;72.00
75451;DHT22;64029;48.244;9.188;2023-09-07T13:17:00;23.70;72.50
75451;DHT22;64029;48.244;9.188;2023-09-07T13:19:27;23.70;72.70
75451;DHT22;64029;48.244;9.188;2023-09-07T13:21:54;23.80;72.30
75451;DHT22;64029;48.244;9.188;2023-09-07T13:24:21;23.80;72.10
75451;DHT22;64029;48.244;9.188;2023-09-07T13:26:51;23.80;72.40
75451;DHT22;64029;48.244;9.188;2023-09-07T13:29:18;23.90;71.90
75451;DHT22;64029;48.244;9.188;2023-09-07T13:31:44;23.90;71.90
75451;DHT22;64029;48.244;9.188;2023-09-07T13:34:12;23.90;71.90
75451;DHT22;64029;48.244;9.188;2023-09-07T13:36:39;24.00;71.90
75451;DHT22;64029;48.244;9.188;2023-09-07T13:39:05;24.00;71.30
75451;DHT22;64029;48.244;9.188;2023-09-07T13:41:32;24.00;71.10
75451;DHT22;64029;48.244;9.188;2023-09-07T13:44:00;24.10;71.60
75451;DHT22;64029;48.244;9.188;2023-09-07T13:46:27;24.10;71.10
75451;DHT22;64029;48.244;9.188;2023-09-07T13:48:55;24.10;70.30
75451;DHT22;64029;48.244;9.188;2023-09-07T13:51:21;24.10;70.80
75451;DHT22;64029;48.244;9.188;2023-09-07T13:53:49;24.20;71.00
75451;DHT22;64029;48.244;9.188;2023-09-07T13:56:17;24.20;69.60
75451;DHT22;64029;48.244;9.188;2023-09-07T13:58:44;24.10;68.90
75451;DHT22;64029;48.244;9.188;2023-09-07T14:01:12;24.10;69.50
75451;DHT22;64029;48.244;9.188;2023-09-07T14:03:39;24.10;68.40
75451;DHT22;64029;48.244;9.188;2023-09-07T14:06:06;24.20;69.20
75451;DHT22;64029;48.244;9.188;2023-09-07T14:08:33;24.20;69.20
75451;DHT22;64029;48.244;9.188;2023-09-07T14:11:00;24.20;69.60
75451;DHT22;64029;48.244;9.188;2023-09-07T14:13:27;24.30;69.10
75451;DHT22;64029;48.244;9.188;2023-09-07T14:15:54;24.20;68.70
75451;DHT22;64029;48.244;9.188;2023-09-07T14:18:22;24.30;68.30
75451;DHT22;64029;48.244;9.188;2023-09-07T14:20:49;24.30;67.50
75451;DHT22;64029;48.244;9.188;2023-09-07T14:23:16;24.30;67.80
75451;DHT22;64029;48.244;9.188;2023-09-07T14:25:43;24.30;69.20
75451;DHT22;64029;48.244;9.188;2023-09-07T14:28:11;24.40;69.10
75451;DHT22;64029;48.244;9.188;2023-09-07T14:30:37;24.40;69.10
75451;DHT22;64029;48.244;9.188;2023-09-07T14:33:04;24.40;69.50
75451;DHT22;64029;48.244;9.188;2023-09-07T14:35:33;24.40;69.50
75451;DHT22;64029;48.244;9.188;2023-09-07T14:38:00;24.40;69.40
75451;DHT22;64029;48.244;9.188;2023-09-07T14:40:27;24.40;68.50
75451;DHT22;64029;48.244;9.188;2023-09-07T14:42:54;24.50;69.30
75451;DHT22;64029;48.244;9.188;2023-09-07T14:45:22;24.50;69.00
75451;DHT22;64029;48.244;9.188;2023-09-07T14:47:49;24.50;68.80
75451;DHT22;64029;48.244;9.188;2023-09-07T14:50:17;24.50;68.70
75451;DHT22;64029;48.244;9.188;2023-09-07T14:52:45;24.50;68.80
75451;DHT22;64029;48.244;9.188;2023-09-07T14:55:13;24.50;68.90
75451;DHT22;64029;48.244;9.188;2023-09-07T14:57:40;24.50;68.70
75451;DHT22;64029;48.244;9.188;2023-09-07T15:00:09;24.50;69.10
75451;DHT22;64029;48.244;9.188;2023-09-07T15:02:37;24.50;69.10
75451;DHT22;64029;48.244;9.188;2023-09-07T15:05:04;24.50;69.30
75451;DHT22;64029;48.244;9.188;2023-09-07T15:07:31;24.50;68.90
75451;DHT22;64029;48.244;9.188;2023-09-07T15:09:59;24.50;68.90
75451;DHT22;64029;48.244;9.188;2023-09-07T15:12:26;24.50;69.20
75451;DHT22;64029;48.244;9.188;2023-09-07T15:14:53;24.50;69.30
75451;DHT22;64029;48.244;9.188;2023-09-07T15:17:20;24.50;69.20
75451;DHT22;64029;48.244;9.188;2023-09-07T15:19:46;24.50;69.10
75451;DHT22;64029;48.244;9.188;2023-09-07T15:22:13;24.50;68.90
75451;DHT22;64029;48.244;9.188;2023-09-07T15:24:40;24.50;68.90
75451;DHT22;64029;48.244;9.188;2023-09-07T15:27:10;24.50;68.90
75451;DHT22;64029;48.244;9.188;2023-09-07T15:29:37;24.60;69.30
75451;DHT22;64029;48.244;9.188;2023-09-07T15:32:05;24.60;69.00